createdAt,value
2023-02-06T00:00:43.204Z,86.55
2023-02-06T00:03:12.616Z,85.87
2023-02-06T00:05:40.499Z,85.21
2023-02-06T00:08:10.844Z,84.47
2023-02-06T00:10:38.980Z,83.89
2023-02-06T00:13:10.001Z,84.39
2023-02-06T00:15:39.721Z,83.99
2023-02-06T00:18:10.125Z,83.44
2023-02-06T00:20:38.450Z,83.34
2023-02-06T00:23:07.775Z,84.09
2023-02-06T00:25:36.878Z,85.18
2023-02-06T00:28:05.623Z,84.53
2023-02-06T00:30:33.800Z,84.27
2023-02-06T00:33:14.209Z,83.45
2023-02-06T00:35:42.186Z,82.83
2023-02-06T00:38:11.913Z,82.70
2023-02-06T00:40:42.629Z,83.24
2023-02-06T00:43:10.403Z,83.27
2023-02-06T00:45:40.686Z,83.79
2023-02-06T00:48:10.379Z,84.09
2023-02-06T00:50:38.454Z,84.72
2023-02-06T00:53:08.793Z,84.63
2023-02-06T00:55:36.880Z,83.80
2023-02-06T00:58:11.394Z,85.11
2023-02-06T01:00:39.251Z,84.94
2023-02-06T01:03:06.998Z,84.03
2023-02-06T01:05:36.590Z,83.69
2023-02-06T01:08:04.948Z,84.15
2023-02-06T01:10:33.030Z,83.89
2023-02-06T01:13:06.257Z,84.04
2023-02-06T01:15:37.761Z,84.89
2023-02-06T01:18:08.717Z,84.77
2023-02-06T01:20:38.175Z,84.35
2023-02-06T01:23:08.266Z,84.31
2023-02-06T01:25:38.533Z,83.86
2023-02-06T01:28:06.454Z,83.10
2023-02-06T01:30:38.502Z,83.27
2023-02-06T01:33:08.790Z,83.20
2023-02-06T01:35:40.744Z,82.71
2023-02-06T01:38:14.348Z,82.41
2023-02-06T01:40:44.713Z,82.94
2023-02-06T01:43:22.235Z,84.36
2023-02-06T01:45:50.005Z,84.74
2023-02-06T01:48:21.239Z,85.14
2023-02-06T01:50:53.719Z,85.26
2023-02-06T01:53:22.240Z,85.92
2023-02-06T01:55:52.724Z,86.06
2023-02-06T01:58:25.899Z,87.44
2023-02-06T02:00:55.058Z,89.22
2023-02-06T02:03:23.317Z,89.02
2023-02-06T02:05:53.281Z,88.70
2023-02-06T02:08:23.512Z,89.15
2023-02-06T02:10:51.638Z,88.12
2023-02-06T02:13:21.168Z,89.18
2023-02-06T02:16:02.530Z,89.28
2023-02-06T02:18:49.233Z,88.59
2023-02-06T02:21:41.516Z,88.38
2023-02-06T02:24:18.211Z,87.46
2023-02-06T02:27:08.680Z,87.17
2023-02-06T02:30:29.137Z,86.92
2023-02-06T02:33:38.480Z,86.25
2023-02-06T02:36:15.453Z,85.10
2023-02-06T02:38:54.275Z,85.14
2023-02-06T02:41:27.247Z,85.71
2023-02-06T02:43:59.781Z,85.18
2023-02-06T02:46:31.589Z,84.84
2023-02-06T02:49:04.459Z,84.00
2023-02-06T02:51:35.075Z,83.84
2023-02-06T02:54:03.782Z,84.87
2023-02-06T02:56:38.742Z,84.80
2023-02-06T02:59:13.083Z,85.15
2023-02-06T03:01:43.690Z,84.77
2023-02-06T03:04:14.278Z,84.76
2023-02-06T03:07:09.215Z,85.31
2023-02-06T03:09:49.602Z,84.80
2023-02-06T03:12:22.385Z,83.79
2023-02-06T03:14:59.317Z,83.38
2023-02-06T03:17:34.745Z,82.05
2023-02-06T03:20:07.817Z,81.06
2023-02-06T03:22:38.172Z,81.02
2023-02-06T03:25:10.042Z,80.66
2023-02-06T03:27:42.562Z,81.02
2023-02-06T03:30:14.144Z,81.59
2023-02-06T03:32:45.449Z,81.56
2023-02-06T03:35:19.541Z,81.47
2023-02-06T03:37:53.595Z,81.10
2023-02-06T03:40:21.816Z,82.10
2023-02-06T03:42:53.616Z,82.80
2023-02-06T03:45:24.257Z,82.73
2023-02-06T03:47:57.541Z,83.30
2023-02-06T03:50:30.362Z,83.20
2023-02-06T03:53:04.493Z,83.84
2023-02-06T03:55:40.499Z,84.60
2023-02-06T03:58:24.634Z,85.54
2023-02-06T04:00:53.153Z,85.00
2023-02-06T04:03:23.179Z,85.57
2023-02-06T04:05:51.060Z,86.21
2023-02-06T04:08:24.478Z,86.26
2023-02-06T04:10:52.394Z,86.85
2023-02-06T04:13:24.946Z,86.97
2023-02-06T04:15:53.102Z,86.77
2023-02-06T04:18:22.479Z,86.05
2023-02-06T04:20:53.361Z,85.59
2023-02-06T04:23:26.391Z,84.75
2023-02-06T04:25:57.336Z,85.27
2023-02-06T04:28:26.397Z,85.02
2023-02-06T04:30:55.779Z,85.20
2023-02-06T04:33:30.261Z,86.18
2023-02-06T04:36:00.243Z,86.00
2023-02-06T04:38:32.564Z,86.32
2023-02-06T04:41:03.886Z,85.48
2023-02-06T04:43:32.060Z,85.68
2023-02-06T04:46:03.143Z,85.32
2023-02-06T04:48:34.327Z,83.56
2023-02-06T04:51:04.937Z,84.21
2023-02-06T04:53:34.847Z,83.61
2023-02-06T04:56:03.611Z,83.81
2023-02-06T04:58:32.792Z,82.90
2023-02-06T05:01:00.696Z,83.60
2023-02-06T05:03:29.705Z,84.48
2023-02-06T05:06:03.614Z,84.55
2023-02-06T05:08:32.543Z,84.20
2023-02-06T05:11:02.345Z,83.67
2023-02-06T05:13:30.573Z,84.43
2023-02-06T05:16:01.527Z,83.91
2023-02-06T05:18:33.269Z,84.21
2023-02-06T05:21:01.143Z,84.59
2023-02-06T05:23:29.015Z,84.59
2023-02-06T05:25:57.250Z,83.75
2023-02-06T05:28:33.667Z,85.25
2023-02-06T05:31:02.886Z,85.86
2023-02-06T05:33:33.780Z,85.67
2023-02-06T05:36:07.858Z,84.70
2023-02-06T05:38:38.365Z,84.90
2023-02-06T05:41:18.920Z,84.35
2023-02-06T05:43:49.315Z,84.29
2023-02-06T05:46:19.518Z,83.81
2023-02-06T05:48:47.400Z,84.19
2023-02-06T05:51:15.280Z,84.13
2023-02-06T05:53:43.726Z,83.92
2023-02-06T05:56:15.642Z,83.96
2023-02-06T05:58:44.333Z,83.48
2023-02-06T06:01:13.954Z,82.71
2023-02-06T06:03:43.818Z,84.13
2023-02-06T06:06:14.797Z,83.43
2023-02-06T06:08:45.835Z,82.91
2023-02-06T06:11:16.358Z,83.04
2023-02-06T06:13:47.679Z,83.51
2023-02-06T06:16:20.887Z,83.50
2023-02-06T06:18:56.102Z,83.15
2023-02-06T06:21:24.193Z,82.96
2023-02-06T06:24:03.074Z,82.62
2023-02-06T06:26:32.071Z,83.44
2023-02-06T06:29:06.002Z,83.38
2023-02-06T06:31:47.478Z,83.08
2023-02-06T06:34:19.498Z,82.55
2023-02-06T06:36:54.331Z,81.62
2023-02-06T06:39:25.648Z,82.12
2023-02-06T06:41:56.468Z,82.88
2023-02-06T06:44:24.560Z,82.48
2023-02-06T06:46:56.468Z,81.26
2023-02-06T06:49:28.976Z,81.41
2023-02-06T06:51:56.892Z,80.29
2023-02-06T06:54:27.748Z,81.29
2023-02-06T06:56:56.672Z,81.69
2023-02-06T06:59:25.723Z,80.52
2023-02-06T07:01:57.435Z,79.70
2023-02-06T07:04:34.583Z,79.47
2023-02-06T07:07:05.305Z,79.63
2023-02-06T07:09:33.446Z,78.28
2023-02-06T07:12:02.032Z,77.99
2023-02-06T07:14:29.823Z,78.87
2023-02-06T07:17:05.101Z,79.81
2023-02-06T07:19:32.994Z,80.61
2023-02-06T07:22:00.958Z,79.97
2023-02-06T07:24:34.875Z,80.31
2023-02-06T07:27:03.034Z,80.22
2023-02-06T07:29:34.035Z,80.25
2023-02-06T07:32:03.676Z,79.33
2023-02-06T07:34:33.021Z,80.00
2023-02-06T07:37:01.364Z,79.02
2023-02-06T07:39:31.288Z,79.46
2023-02-06T07:42:01.293Z,80.00
2023-02-06T07:44:29.361Z,79.02
2023-02-06T07:47:01.166Z,79.58
2023-02-06T07:49:30.508Z,80.09
2023-02-06T07:52:01.315Z,79.86
2023-02-06T07:54:31.722Z,80.57
2023-02-06T07:57:01.120Z,80.04
2023-02-06T07:59:29.476Z,80.01
2023-02-06T08:02:01.148Z,80.37
2023-02-06T08:04:35.360Z,80.60
2023-02-06T08:07:03.620Z,80.55
2023-02-06T08:09:33.463Z,79.28
2023-02-06T08:12:02.376Z,78.99
2023-02-06T08:14:32.934Z,77.97
2023-02-06T08:17:04.174Z,77.73
2023-02-06T08:19:36.508Z,77.81
2023-02-06T08:22:04.849Z,76.77
2023-02-06T08:24:38.059Z,76.51
2023-02-06T08:27:09.929Z,76.51
2023-02-06T08:29:42.574Z,77.06
2023-02-06T08:32:11.193Z,76.75
2023-02-06T08:34:41.676Z,75.42
2023-02-06T08:37:09.948Z,74.98
2023-02-06T08:39:40.465Z,76.21
2023-02-06T08:42:11.117Z,76.73
2023-02-06T08:44:39.259Z,77.42
2023-02-06T08:47:10.424Z,76.99
2023-02-06T08:49:42.099Z,77.19
2023-02-06T08:52:11.994Z,77.70
2023-02-06T08:54:43.037Z,76.99
2023-02-06T08:57:24.467Z,77.30
2023-02-06T08:59:53.028Z,78.41
2023-02-06T09:02:20.989Z,78.85
2023-02-06T09:04:50.272Z,78.86
2023-02-06T09:07:18.279Z,79.66
2023-02-06T09:09:48.986Z,78.70
2023-02-06T09:12:17.265Z,78.73
2023-02-06T09:14:46.472Z,78.61
2023-02-06T09:17:14.431Z,78.97
2023-02-06T09:19:50.526Z,77.47
2023-02-06T09:22:20.187Z,77.83
2023-02-06T09:24:52.485Z,77.42
2023-02-06T09:27:22.810Z,77.31
2023-02-06T09:29:51.022Z,76.34
2023-02-06T09:32:20.914Z,75.72
2023-02-06T09:34:51.817Z,75.33
2023-02-06T09:37:23.639Z,75.88
2023-02-06T09:39:54.636Z,74.92
2023-02-06T09:42:28.083Z,75.02
2023-02-06T09:45:02.952Z,76.17
2023-02-06T09:47:36.241Z,75.68
2023-02-06T09:50:20.972Z,74.51
2023-02-06T09:53:02.810Z,73.91
2023-02-06T09:58:25.495Z,73.06
2023-02-06T10:00:59.548Z,73.35
2023-02-06T10:03:45.287Z,71.73
2023-02-06T10:06:21.341Z,72.94
2023-02-06T10:09:00.427Z,72.97
2023-02-06T10:11:38.964Z,71.54
2023-02-06T10:14:12.968Z,70.94
2023-02-06T10:16:47.070Z,70.45
2023-02-06T10:19:17.177Z,69.39
2023-02-06T10:21:48.723Z,69.76
2023-02-06T10:24:30.028Z,69.46
2023-02-06T10:27:01.441Z,70.74
2023-02-06T10:29:31.133Z,70.59
2023-02-06T10:32:31.826Z,70.44
2023-02-06T10:35:28.775Z,70.12
2023-02-06T10:38:20.007Z,71.27
2023-02-06T10:40:53.879Z,71.03
2023-02-06T10:43:30.401Z,71.32
2023-02-06T10:46:05.200Z,69.91
2023-02-06T10:48:37.192Z,70.54
2023-02-06T10:51:18.819Z,72.01
2023-02-06T10:53:52.250Z,70.94
2023-02-06T10:56:24.787Z,70.72
2023-02-06T10:58:58.226Z,69.27
2023-02-06T11:01:33.500Z,67.51
2023-02-06T11:04:05.959Z,68.80
2023-02-06T11:06:37.494Z,67.39
2023-02-06T11:09:05.724Z,69.13
2023-02-06T11:11:39.194Z,67.81
2023-02-06T11:14:18.229Z,66.22
2023-02-06T11:16:48.228Z,65.81
2023-02-06T11:19:27.257Z,64.90
2023-02-06T11:22:12.548Z,65.51
2023-02-06T11:27:38.698Z,64.83
2023-02-06T11:30:10.225Z,65.23
2023-02-06T11:33:03.489Z,65.21
2023-02-06T11:35:41.560Z,66.50
2023-02-06T11:38:17.199Z,65.15
2023-02-06T11:40:45.571Z,67.09
2023-02-06T11:43:24.854Z,65.55
2023-02-06T11:46:09.922Z,66.43
2023-02-06T11:48:41.146Z,68.94
2023-02-06T11:51:16.990Z,67.95
2023-02-06T11:54:06.755Z,67.83
2023-02-06T11:56:37.430Z,67.31
2023-02-06T11:59:09.199Z,69.41
2023-02-06T12:01:48.249Z,69.54
2023-02-06T12:04:24.159Z,68.81
2023-02-06T12:06:57.992Z,69.34
2023-02-06T12:09:29.400Z,68.32
2023-02-06T12:12:04.259Z,70.05
2023-02-06T12:14:39.404Z,69.22
2023-02-06T12:17:20.223Z,71.58
2023-02-06T12:19:52.793Z,70.68
2023-02-06T12:22:28.122Z,70.37
2023-02-06T12:25:06.546Z,71.37
2023-02-06T12:27:39.813Z,70.21
2023-02-06T12:30:28.833Z,69.36
2023-02-06T12:33:02.066Z,70.83
2023-02-06T12:35:37.434Z,70.12
2023-02-06T12:38:10.869Z,69.24
2023-02-06T12:40:44.686Z,69.00
2023-02-06T12:43:19.764Z,69.38
2023-02-06T12:45:54.119Z,68.53
2023-02-06T12:48:31.456Z,69.26
2023-02-06T12:51:11.932Z,69.65
2023-02-06T12:53:42.784Z,70.09
2023-02-06T12:56:21.549Z,69.53
2023-02-06T12:58:54.548Z,69.40
2023-02-06T13:01:36.241Z,69.53
2023-02-06T13:04:05.499Z,69.29
2023-02-06T13:06:43.675Z,68.29
2023-02-06T13:09:22.619Z,67.24
2023-02-06T13:11:56.104Z,67.87
2023-02-06T13:14:31.167Z,68.33
2023-02-06T13:17:13.247Z,68.09
2023-02-06T13:20:05.089Z,67.84
2023-02-06T13:22:46.684Z,66.54
2023-02-06T13:25:56.252Z,66.79
2023-02-06T13:29:04.290Z,66.08
2023-02-06T13:31:34.578Z,66.20
2023-02-06T13:34:08.516Z,66.50
2023-02-06T13:36:58.300Z,67.57
2023-02-06T13:39:29.788Z,67.20
2023-02-06T13:42:05.164Z,67.17
2023-02-06T13:44:36.516Z,67.98
2023-02-06T13:47:29.745Z,68.21
2023-02-06T13:50:30.056Z,68.27
2023-02-06T13:53:36.005Z,68.43
2023-02-06T13:56:14.348Z,66.95
2023-02-06T13:58:47.696Z,66.94
2023-02-06T14:01:20.317Z,67.08
2023-02-06T14:03:52.498Z,67.46
2023-02-06T14:07:03.234Z,67.71
2023-02-06T14:09:45.480Z,68.22
2023-02-06T14:12:35.592Z,68.10
2023-02-06T14:15:17.029Z,66.80
2023-02-06T14:18:11.677Z,67.08
2023-02-06T14:20:50.355Z,67.14
2023-02-06T14:23:30.617Z,67.50
2023-02-06T14:26:17.184Z,67.99
2023-02-06T14:28:56.188Z,67.65
2023-02-06T14:31:36.415Z,68.06
2023-02-06T14:34:20.240Z,66.98
2023-02-06T14:37:11.007Z,68.58
2023-02-06T14:39:50.674Z,68.35
2023-02-06T14:42:22.564Z,67.99
2023-02-06T14:44:55.168Z,68.78
2023-02-06T14:47:43.390Z,69.02
2023-02-06T14:50:21.720Z,68.57
2023-02-06T14:52:56.331Z,68.88
2023-02-06T14:55:36.099Z,67.90
2023-02-06T14:58:07.737Z,68.48
2023-02-06T15:00:36.402Z,67.76
2023-02-06T15:03:08.134Z,68.06
2023-02-06T15:05:37.033Z,66.73
2023-02-06T15:08:07.262Z,67.06
2023-02-06T15:10:39.928Z,66.80
2023-02-06T15:13:07.940Z,66.44
2023-02-06T15:15:39.137Z,67.24
2023-02-06T15:18:08.992Z,66.96
2023-02-06T15:20:44.098Z,66.99
2023-02-06T15:23:18.367Z,66.98
2023-02-06T15:26:07.356Z,66.45
2023-02-06T15:28:39.801Z,66.43
2023-02-06T15:31:17.959Z,67.50
2023-02-06T15:33:50.944Z,67.93
2023-02-06T15:36:26.400Z,66.95
2023-02-06T15:38:54.341Z,66.44
2023-02-06T15:41:24.508Z,67.54
2023-02-06T15:43:56.770Z,67.10
2023-02-06T15:46:25.135Z,67.64
2023-02-06T15:48:55.536Z,68.10
2023-02-06T15:51:31.030Z,68.65
2023-02-06T15:54:16.923Z,67.95
2023-02-06T15:56:59.286Z,68.09
2023-02-06T15:59:28.403Z,67.19
2023-02-06T16:01:59.584Z,68.40
2023-02-06T16:04:31.240Z,69.57
2023-02-06T16:07:02.228Z,69.62
2023-02-06T16:09:36.335Z,69.02
2023-02-06T16:12:09.843Z,69.87
2023-02-06T16:14:40.203Z,69.29
2023-02-06T16:17:32.214Z,68.26
2023-02-06T16:20:07.343Z,67.28
2023-02-06T16:22:39.306Z,67.50
2023-02-06T16:25:16.501Z,68.08
2023-02-06T16:27:49.007Z,67.38
2023-02-06T16:30:28.490Z,66.38
2023-02-06T16:33:00.197Z,65.46
2023-02-06T16:35:28.435Z,65.01
2023-02-06T16:37:57.868Z,65.93
2023-02-06T16:40:30.025Z,65.28
2023-02-06T16:43:02.072Z,64.70
2023-02-06T16:45:29.918Z,64.70
2023-02-06T16:47:58.543Z,64.58
2023-02-06T16:50:28.128Z,64.56
2023-02-06T16:53:04.095Z,65.20
2023-02-06T16:55:32.245Z,65.84
2023-02-06T16:58:02.233Z,66.00
2023-02-06T17:00:32.382Z,65.95
2023-02-06T17:03:01.983Z,65.69
2023-02-06T17:05:31.654Z,65.87
2023-02-06T17:08:04.275Z,66.11
2023-02-06T17:10:37.813Z,66.38
2023-02-06T17:13:14.243Z,66.73
2023-02-06T17:15:47.139Z,67.17
2023-02-06T17:18:18.369Z,67.34
2023-02-06T17:20:51.801Z,67.17
2023-02-06T17:23:22.272Z,65.51
2023-02-06T17:25:52.463Z,65.34
2023-02-06T17:28:22.352Z,64.63
2023-02-06T17:31:00.732Z,64.88
2023-02-06T17:33:29.351Z,63.38
2023-02-06T17:35:58.125Z,63.95
2023-02-06T17:38:26.487Z,63.89
2023-02-06T17:40:56.857Z,64.84
2023-02-06T17:43:33.845Z,65.31
2023-02-06T17:46:03.397Z,66.28
2023-02-06T17:48:36.442Z,66.87
2023-02-06T17:51:05.894Z,66.63
2023-02-06T17:53:34.473Z,66.81
2023-02-06T17:56:14.032Z,67.09
2023-02-06T17:58:46.458Z,67.09
2023-02-06T18:01:15.601Z,67.12
2023-02-06T18:03:47.944Z,66.38
2023-02-06T18:06:16.367Z,66.66
2023-02-06T18:08:44.982Z,66.51
2023-02-06T18:11:19.246Z,66.71
2023-02-06T18:13:54.026Z,66.63
2023-02-06T18:16:26.424Z,66.35
2023-02-06T18:18:54.704Z,66.24
2023-02-06T18:21:24.590Z,66.25
2023-02-06T18:23:55.068Z,65.66
2023-02-06T18:26:24.380Z,66.31
2023-02-06T18:28:55.091Z,65.63
2023-02-06T18:31:27.079Z,65.15
2023-02-06T18:33:55.365Z,65.40
2023-02-06T18:36:24.965Z,65.32
2023-02-06T18:38:53.782Z,65.11
2023-02-06T18:41:42.769Z,65.36
2023-02-06T18:44:12.554Z,65.07
2023-02-06T18:46:41.531Z,65.00
2023-02-06T18:49:11.728Z,65.57
2023-02-06T18:51:48.856Z,65.52
2023-02-06T18:54:16.772Z,65.93
2023-02-06T18:56:45.547Z,65.99
2023-02-06T18:59:15.570Z,67.00
2023-02-06T19:01:48.865Z,67.57
2023-02-06T19:04:16.824Z,67.89
2023-02-06T19:06:45.916Z,67.66
2023-02-06T19:09:14.298Z,66.88
2023-02-06T19:11:47.391Z,67.40
2023-02-06T19:14:19.913Z,66.24
2023-02-06T19:16:48.986Z,66.49
2023-02-06T19:19:21.060Z,65.90
2023-02-06T19:21:49.075Z,66.49
2023-02-06T19:24:20.306Z,67.25
2023-02-06T19:26:48.315Z,67.52
2023-02-06T19:29:34.425Z,67.19
2023-02-06T19:32:03.777Z,67.69
2023-02-06T19:34:38.277Z,68.35
2023-02-06T19:37:07.128Z,69.62
2023-02-06T19:39:42.665Z,70.73
2023-02-06T19:42:18.114Z,73.34
2023-02-06T19:44:48.202Z,74.88
2023-02-06T19:47:20.191Z,75.58
2023-02-06T19:49:52.954Z,76.58
2023-02-06T19:52:21.453Z,77.19
2023-02-06T19:54:52.514Z,77.07
2023-02-06T19:57:20.457Z,77.60
2023-02-06T19:59:49.758Z,78.25
2023-02-06T20:02:20.578Z,77.97
2023-02-06T20:04:53.024Z,78.16
2023-02-06T20:07:22.266Z,78.52
2023-02-06T20:09:51.178Z,79.03
2023-02-06T20:12:19.289Z,80.36
2023-02-06T20:14:48.529Z,81.35
2023-02-06T20:17:19.918Z,81.53
2023-02-06T20:19:50.064Z,82.70
2023-02-06T20:22:24.004Z,83.39
2023-02-06T20:24:56.734Z,84.34
2023-02-06T20:27:24.773Z,84.41
2023-02-06T20:29:55.129Z,84.15
2023-02-06T20:32:26.093Z,83.92
2023-02-06T20:34:57.819Z,84.38
2023-02-06T20:37:26.524Z,84.20
2023-02-06T20:39:57.304Z,85.77
2023-02-06T20:42:28.888Z,85.38
2023-02-06T20:44:57.241Z,85.97
2023-02-06T20:47:41.506Z,85.93
2023-02-06T20:50:10.382Z,85.71
2023-02-06T20:52:38.377Z,86.04
2023-02-06T20:55:09.106Z,85.18
2023-02-06T20:57:37.349Z,85.21
2023-02-06T21:00:05.983Z,85.65
2023-02-06T21:02:38.210Z,85.43
2023-02-06T21:05:06.426Z,84.66
2023-02-06T21:07:34.650Z,84.63
2023-02-06T21:10:03.495Z,85.12
2023-02-06T21:12:31.523Z,86.30
2023-02-06T21:15:00.001Z,86.41
2023-02-06T21:17:30.056Z,84.82
2023-02-06T21:19:59.314Z,83.95
2023-02-06T21:22:32.053Z,83.51
2023-02-06T21:25:05.284Z,83.56
2023-02-06T21:27:33.955Z,82.62
2023-02-06T21:30:02.556Z,83.15
2023-02-06T21:32:33.259Z,82.34
2023-02-06T21:35:02.520Z,81.69
2023-02-06T21:37:33.488Z,81.92
2023-02-06T21:40:05.016Z,82.37
2023-02-06T21:42:33.047Z,82.64
2023-02-06T21:45:01.216Z,82.91
2023-02-06T21:47:29.080Z,83.15
2023-02-06T21:49:59.943Z,83.18
2023-02-06T21:52:29.185Z,82.99
2023-02-06T21:55:01.938Z,83.66
2023-02-06T21:57:29.865Z,82.88
2023-02-06T22:00:00.355Z,82.55
2023-02-06T22:02:34.014Z,82.91
2023-02-06T22:05:05.228Z,82.88
2023-02-06T22:07:42.126Z,82.72
2023-02-06T22:10:10.951Z,82.89
2023-02-06T22:12:41.360Z,82.85
2023-02-06T22:15:10.363Z,81.94
2023-02-06T22:17:43.566Z,82.18
2023-02-06T22:20:16.288Z,82.42
2023-02-06T22:22:46.936Z,83.41
2023-02-06T22:25:14.844Z,83.12
2023-02-06T22:27:43.506Z,82.93
2023-02-06T22:30:16.614Z,82.97
2023-02-06T22:32:46.739Z,83.32
2023-02-06T22:35:17.200Z,82.27
2023-02-06T22:37:55.368Z,81.34
2023-02-06T22:40:23.193Z,82.08
2023-02-06T22:42:58.284Z,81.52
2023-02-06T22:45:32.159Z,81.50
2023-02-06T22:48:09.231Z,81.78
2023-02-06T22:50:37.221Z,81.55
2023-02-06T22:53:25.360Z,81.79
2023-02-06T22:56:10.502Z,82.43
2023-02-06T22:58:41.018Z,82.76
2023-02-06T23:01:09.187Z,83.81
2023-02-06T23:03:38.316Z,84.15
2023-02-06T23:06:10.307Z,84.61
2023-02-06T23:08:41.415Z,84.60
2023-02-06T23:11:10.710Z,84.18
2023-02-06T23:13:41.087Z,84.33
2023-02-06T23:16:15.918Z,85.11
2023-02-06T23:18:48.248Z,85.97
2023-02-06T23:21:17.045Z,85.79
2023-02-06T23:23:46.346Z,84.65
2023-02-06T23:26:19.468Z,85.67
2023-02-06T23:28:48.350Z,84.98
2023-02-06T23:31:22.466Z,85.58
2023-02-06T23:33:56.127Z,85.88
2023-02-06T23:36:26.196Z,85.96
2023-02-06T23:38:58.712Z,86.31
2023-02-06T23:41:29.174Z,85.42
2023-02-06T23:43:58.564Z,85.76
2023-02-06T23:46:30.810Z,85.36
2023-02-06T23:49:03.546Z,85.46
2023-02-06T23:51:32.613Z,85.21
2023-02-06T23:54:08.479Z,85.07
2023-02-06T23:56:37.057Z,85.99
